createdAt,value
2022-10-17T00:00:50.145Z,5.25
2022-10-17T00:03:16.831Z,7.00
2022-10-17T00:05:45.917Z,6.57
2022-10-17T00:08:14.600Z,6.82
2022-10-17T00:10:41.450Z,6.47
2022-10-17T00:13:08.815Z,8.90
2022-10-17T00:15:35.152Z,6.18
2022-10-17T00:18:01.886Z,5.00
2022-10-17T00:20:30.302Z,7.22
2022-10-17T00:22:57.461Z,5.90
2022-10-17T00:25:23.983Z,6.95
2022-10-17T00:27:50.325Z,6.63
2022-10-17T00:30:18.248Z,7.75
2022-10-17T00:32:44.808Z,6.90
2022-10-17T00:35:11.613Z,8.10
2022-10-17T00:37:38.208Z,6.18
2022-10-17T00:40:07.887Z,6.70
2022-10-17T00:42:37.061Z,7.60
2022-10-17T00:45:20.858Z,6.38
2022-10-17T00:47:53.875Z,8.60
2022-10-17T00:50:20.784Z,8.48
2022-10-17T00:52:48.763Z,8.48
2022-10-17T00:55:24.979Z,6.40
2022-10-17T00:57:52.836Z,9.93
2022-10-17T01:00:19.971Z,8.75
2022-10-17T01:02:46.354Z,10.88
2022-10-17T01:05:16.683Z,8.65
2022-10-17T01:07:44.429Z,8.02
2022-10-17T01:10:12.109Z,6.95
2022-10-17T01:12:50.648Z,12.25
2022-10-17T01:15:29.107Z,8.73
2022-10-17T01:18:12.024Z,9.13
2022-10-17T01:21:06.436Z,5.43
2022-10-17T01:24:00.570Z,7.32
2022-10-17T01:27:00.909Z,7.57
2022-10-17T01:30:01.230Z,9.02
2022-10-17T01:32:44.195Z,9.55
2022-10-17T01:35:23.654Z,7.15
2022-10-17T01:38:17.463Z,7.63
2022-10-17T01:40:50.265Z,15.55
2022-10-17T01:43:41.296Z,8.35
2022-10-17T01:46:16.015Z,7.85
2022-10-17T01:48:46.029Z,8.18
2022-10-17T01:51:16.821Z,7.05
2022-10-17T01:53:49.070Z,8.07
2022-10-17T01:56:16.715Z,8.40
2022-10-17T01:58:55.985Z,8.90
2022-10-17T02:01:24.536Z,9.20
2022-10-17T02:03:52.060Z,9.10
2022-10-17T02:06:18.445Z,6.90
2022-10-17T02:08:50.021Z,14.00
2022-10-17T02:11:22.592Z,7.95
2022-10-17T02:16:51.459Z,8.82
2022-10-17T02:19:40.331Z,8.93
2022-10-17T02:22:15.839Z,8.90
2022-10-17T02:24:57.154Z,7.90
2022-10-17T02:27:35.249Z,9.32
2022-10-17T02:30:29.290Z,10.23
2022-10-17T02:33:01.109Z,10.48
2022-10-17T02:35:32.947Z,7.22
2022-10-17T02:38:00.692Z,10.25
2022-10-17T02:40:30.627Z,9.45
2022-10-17T02:43:00.885Z,8.35
2022-10-17T02:45:29.858Z,9.00
2022-10-17T02:48:03.685Z,9.80
2022-10-17T02:50:46.167Z,11.95
2022-10-17T02:53:17.446Z,8.45
2022-10-17T02:55:53.680Z,9.68
2022-10-17T02:58:25.334Z,8.85
2022-10-17T03:00:55.221Z,8.75
2022-10-17T03:03:29.752Z,8.48
2022-10-17T03:05:56.249Z,6.88
2022-10-17T03:08:23.556Z,8.98
2022-10-17T03:10:50.535Z,8.82
2022-10-17T03:13:17.060Z,10.55
2022-10-17T03:15:43.402Z,9.38
2022-10-17T03:18:09.938Z,10.43
2022-10-17T03:20:36.285Z,8.95
2022-10-17T03:23:02.580Z,9.38
2022-10-17T03:25:29.031Z,8.70
2022-10-17T03:27:59.201Z,9.02
2022-10-17T03:30:25.563Z,9.43
2022-10-17T03:32:51.878Z,12.00
2022-10-17T03:35:18.257Z,8.93
2022-10-17T03:37:44.556Z,8.90
2022-10-17T03:40:11.179Z,8.65
2022-10-17T03:42:40.559Z,11.57
2022-10-17T03:45:07.228Z,9.13
2022-10-17T03:47:33.559Z,10.52
2022-10-17T03:49:59.897Z,10.02
2022-10-17T03:52:26.300Z,10.35
2022-10-17T03:54:52.658Z,8.65
2022-10-17T03:57:19.529Z,10.38
2022-10-17T03:59:45.822Z,9.90
2022-10-17T04:02:12.334Z,11.55
2022-10-17T04:04:39.791Z,8.63
2022-10-17T04:07:06.118Z,9.45
2022-10-17T04:09:32.483Z,12.30
2022-10-17T04:11:58.938Z,9.18
2022-10-17T04:14:25.296Z,11.15
2022-10-17T04:16:51.728Z,8.93
2022-10-17T04:19:18.059Z,9.93
2022-10-17T04:21:44.424Z,7.70
2022-10-17T04:24:11.845Z,12.93
2022-10-17T04:26:38.206Z,10.70
2022-10-17T04:29:04.732Z,9.82
2022-10-17T04:31:31.491Z,9.80
2022-10-17T04:33:57.997Z,10.48
2022-10-17T04:36:24.412Z,10.32
2022-10-17T04:38:50.733Z,9.82
2022-10-17T04:41:21.459Z,10.38
2022-10-17T04:43:50.969Z,9.68
2022-10-17T04:46:18.460Z,10.13
2022-10-17T04:48:44.911Z,9.57
2022-10-17T04:51:14.163Z,10.00
2022-10-17T04:53:42.410Z,9.63
2022-10-17T04:56:12.031Z,10.55
2022-10-17T04:58:39.446Z,10.63
2022-10-17T05:01:11.617Z,9.02
2022-10-17T05:03:46.206Z,8.13
2022-10-17T05:06:16.189Z,10.40
2022-10-17T05:08:43.714Z,7.22
2022-10-17T05:11:21.829Z,14.10
2022-10-17T05:13:53.083Z,7.75
2022-10-17T05:16:20.159Z,8.02
2022-10-17T05:18:52.955Z,10.95
2022-10-17T05:21:21.567Z,7.82
2022-10-17T05:23:47.968Z,9.82
2022-10-17T05:26:14.979Z,10.48
2022-10-17T05:28:41.524Z,11.52
2022-10-17T05:31:10.431Z,7.55
2022-10-17T05:33:43.044Z,10.65
2022-10-17T05:36:10.124Z,17.95
2022-10-17T05:38:36.486Z,10.75
2022-10-17T05:41:05.385Z,8.27
2022-10-17T05:43:32.921Z,9.75
2022-10-17T05:45:59.353Z,9.88
2022-10-17T05:48:25.699Z,10.52
2022-10-17T05:51:00.577Z,7.63
2022-10-17T05:53:30.797Z,7.40
2022-10-17T05:56:01.901Z,7.90
2022-10-17T06:01:15.391Z,14.77
2022-10-17T06:03:47.751Z,11.18
2022-10-17T06:06:15.158Z,7.40
2022-10-17T06:08:41.856Z,10.82
2022-10-17T06:11:10.166Z,8.50
2022-10-17T06:13:38.101Z,8.07
2022-10-17T06:16:05.021Z,9.57
2022-10-17T06:18:31.867Z,8.57
2022-10-17T06:21:07.065Z,9.63
2022-10-17T06:23:34.209Z,9.27
2022-10-17T06:26:01.907Z,8.73
2022-10-17T06:28:28.669Z,8.70
2022-10-17T06:30:55.242Z,9.70
2022-10-17T06:33:23.170Z,10.55
2022-10-17T06:35:56.488Z,12.18
2022-10-17T06:38:23.091Z,9.55
2022-10-17T06:40:49.634Z,9.75
2022-10-17T06:43:16.116Z,8.75
2022-10-17T06:45:42.509Z,8.95
2022-10-17T06:48:09.381Z,10.75
2022-10-17T06:50:35.888Z,8.00
2022-10-17T06:53:02.219Z,12.27
2022-10-17T06:55:28.588Z,8.35
2022-10-17T06:57:58.165Z,10.52
2022-10-17T07:00:26.713Z,8.75
2022-10-17T07:02:53.057Z,8.50
2022-10-17T07:05:19.578Z,8.65
2022-10-17T07:07:47.517Z,9.43
2022-10-17T07:10:16.104Z,8.25
2022-10-17T07:12:44.610Z,10.35
2022-10-17T07:15:11.279Z,11.45
2022-10-17T07:17:37.609Z,12.05
2022-10-17T07:20:04.157Z,9.25
2022-10-17T07:22:33.316Z,9.88
2022-10-17T07:24:59.682Z,9.73
2022-10-17T07:27:26.197Z,8.23
2022-10-17T07:29:52.668Z,7.88
2022-10-17T07:32:19.028Z,8.00
2022-10-17T07:34:48.133Z,10.15
2022-10-17T07:37:14.484Z,9.32
2022-10-17T07:39:40.874Z,11.88
2022-10-17T07:42:09.920Z,8.45
2022-10-17T07:44:36.266Z,8.15
2022-10-17T07:47:02.673Z,8.65
2022-10-17T07:49:29.350Z,11.13
2022-10-17T07:51:55.683Z,10.32
2022-10-17T07:54:22.818Z,8.07
2022-10-17T07:56:50.577Z,9.05
2022-10-17T07:59:18.647Z,10.05
2022-10-17T08:01:45.317Z,8.35
2022-10-17T08:04:11.693Z,10.95
2022-10-17T08:06:38.342Z,14.70
2022-10-17T08:09:04.767Z,14.43
2022-10-17T08:11:31.183Z,9.57
2022-10-17T08:13:57.559Z,8.48
2022-10-17T08:16:23.982Z,8.70
2022-10-17T08:18:50.373Z,11.25
2022-10-17T08:21:16.817Z,13.10
2022-10-17T08:23:43.172Z,10.02
2022-10-17T08:26:13.175Z,9.05
2022-10-17T08:28:40.374Z,8.07
2022-10-17T08:31:09.864Z,7.75
2022-10-17T08:33:36.538Z,9.18
2022-10-17T08:36:05.178Z,12.27
2022-10-17T08:38:35.333Z,9.30
2022-10-17T08:41:14.142Z,9.38
2022-10-17T08:44:02.067Z,10.55
2022-10-17T08:46:36.212Z,14.05
2022-10-17T08:49:08.740Z,10.48
2022-10-17T08:51:52.698Z,10.50
2022-10-17T08:54:45.906Z,18.88
2022-10-17T08:57:15.331Z,10.25
2022-10-17T08:59:43.267Z,11.15
2022-10-17T09:02:43.745Z,11.07
2022-10-17T09:05:37.368Z,8.63
2022-10-17T09:08:29.470Z,10.90
2022-10-17T09:13:40.832Z,14.07
2022-10-17T09:16:07.639Z,11.27
2022-10-17T09:18:38.800Z,12.98
2022-10-17T09:21:27.671Z,8.50
2022-10-17T09:24:08.954Z,10.88
2022-10-17T09:26:38.806Z,11.93
2022-10-17T09:29:20.534Z,8.60
2022-10-17T09:32:21.929Z,10.57
2022-10-17T09:34:48.674Z,9.20
2022-10-17T09:37:17.151Z,10.73
2022-10-17T09:39:44.759Z,16.27
2022-10-17T09:42:19.317Z,12.18
2022-10-17T09:44:58.126Z,13.60
2022-10-17T09:47:47.706Z,10.70
2022-10-17T09:50:25.764Z,12.95
2022-10-17T09:52:53.504Z,13.30
2022-10-17T09:55:39.061Z,11.27
2022-10-17T09:58:07.288Z,18.73
2022-10-17T10:00:37.938Z,11.95
2022-10-17T10:03:23.962Z,8.35
2022-10-17T10:06:12.472Z,10.40
2022-10-17T10:09:00.406Z,9.98
2022-10-17T10:11:45.551Z,12.27
2022-10-17T10:14:19.382Z,9.43
2022-10-17T10:16:47.666Z,10.13
2022-10-17T10:19:29.872Z,8.68
2022-10-17T10:22:14.704Z,11.13
2022-10-17T10:24:41.150Z,12.20
2022-10-17T10:27:14.830Z,13.90
2022-10-17T10:29:50.113Z,10.60
2022-10-17T10:32:21.912Z,8.98
2022-10-17T10:37:29.931Z,10.00
2022-10-17T10:39:59.236Z,15.18
2022-10-17T10:42:39.332Z,11.05
2022-10-17T10:45:46.385Z,9.27
2022-10-17T10:48:26.259Z,8.25
2022-10-17T10:50:57.696Z,7.80
2022-10-17T10:53:49.729Z,9.82
2022-10-17T10:56:20.672Z,6.88
2022-10-17T10:58:53.581Z,7.40
2022-10-17T11:01:35.145Z,6.80
2022-10-17T11:04:17.856Z,7.35
2022-10-17T11:06:46.191Z,4.63
2022-10-17T11:09:31.323Z,4.90
2022-10-17T11:12:09.711Z,4.57
2022-10-17T11:15:12.978Z,6.93
2022-10-17T11:17:51.108Z,6.25
2022-10-17T11:20:32.745Z,8.85
2022-10-17T11:23:23.917Z,8.95
2022-10-17T11:25:53.033Z,8.00
2022-10-17T11:28:22.949Z,6.70
2022-10-17T11:30:57.563Z,5.75
2022-10-17T11:33:32.518Z,4.75
2022-10-17T11:36:04.585Z,6.03
2022-10-17T11:38:42.903Z,8.32
2022-10-17T11:41:14.210Z,6.60
2022-10-17T11:44:14.019Z,6.25
2022-10-17T11:46:42.978Z,5.47
2022-10-17T11:49:24.495Z,5.43
2022-10-17T11:52:51.886Z,7.90
2022-10-17T11:55:24.026Z,6.72
2022-10-17T11:58:35.750Z,5.55
2022-10-17T12:01:24.533Z,3.53
2022-10-17T12:04:17.067Z,4.75
2022-10-17T12:07:00.959Z,5.90
2022-10-17T12:09:37.006Z,5.43
2022-10-17T12:12:04.100Z,7.13
2022-10-17T12:14:33.225Z,4.35
2022-10-17T12:17:00.872Z,5.70
2022-10-17T12:19:33.738Z,4.63
2022-10-17T12:22:26.252Z,6.60
2022-10-17T12:25:02.306Z,7.13
2022-10-17T12:27:39.684Z,6.15
2022-10-17T12:30:12.232Z,5.38
2022-10-17T12:33:06.221Z,5.97
2022-10-17T12:35:38.865Z,4.95
2022-10-17T12:38:15.509Z,7.15
2022-10-17T12:40:46.307Z,6.65
2022-10-17T12:43:15.186Z,6.43
2022-10-17T12:45:57.631Z,6.50
2022-10-17T12:48:35.933Z,5.38
2022-10-17T12:51:37.458Z,7.70
2022-10-17T12:54:12.647Z,5.88
2022-10-17T12:56:57.958Z,6.35
2022-10-17T12:59:27.620Z,4.97
2022-10-17T13:01:58.529Z,6.38
2022-10-17T13:04:26.774Z,6.38
2022-10-17T13:06:56.232Z,8.65
2022-10-17T13:09:27.788Z,15.50
2022-10-17T13:11:57.346Z,5.63
2022-10-17T13:14:25.573Z,7.80
2022-10-17T13:16:58.337Z,7.25
2022-10-17T13:19:28.922Z,8.50
2022-10-17T13:21:59.839Z,7.05
2022-10-17T13:24:35.153Z,5.85
2022-10-17T13:27:02.741Z,8.52
2022-10-17T13:29:31.888Z,5.30
2022-10-17T13:32:04.091Z,8.18
2022-10-17T13:34:32.409Z,9.50
2022-10-17T13:37:06.249Z,5.25
2022-10-17T13:39:55.402Z,6.55
2022-10-17T13:42:27.339Z,6.15
2022-10-17T13:44:54.898Z,4.32
2022-10-17T13:47:28.410Z,5.60
2022-10-17T13:49:56.182Z,4.28
2022-10-17T13:52:27.977Z,6.03
2022-10-17T13:54:55.410Z,8.30
2022-10-17T13:57:29.815Z,5.85
2022-10-17T14:00:02.565Z,6.25
2022-10-17T14:02:30.829Z,5.45
2022-10-17T14:05:23.004Z,6.05
2022-10-17T14:10:42.157Z,6.47
2022-10-17T14:13:24.490Z,7.28
2022-10-17T14:15:52.463Z,5.82
2022-10-17T14:18:23.928Z,8.25
2022-10-17T14:23:42.796Z,8.25
2022-10-17T14:26:13.320Z,6.25
2022-10-17T14:28:43.158Z,8.38
2022-10-17T14:31:22.506Z,7.13
2022-10-17T14:33:51.092Z,7.28
2022-10-17T14:36:19.226Z,6.55
2022-10-17T14:38:48.304Z,7.80
2022-10-17T14:41:41.868Z,8.18
2022-10-17T14:44:35.862Z,7.22
2022-10-17T14:47:42.306Z,7.75
2022-10-17T14:52:34.098Z,7.38
2022-10-17T14:55:20.390Z,7.05
2022-10-17T14:57:46.753Z,8.40
2022-10-17T15:00:15.165Z,6.90
2022-10-17T15:02:41.870Z,7.80
2022-10-17T15:05:12.985Z,6.88
2022-10-17T15:07:40.509Z,6.93
2022-10-17T15:10:07.186Z,8.75
2022-10-17T15:12:33.607Z,7.65
2022-10-17T15:15:00.021Z,8.48
2022-10-17T15:17:29.854Z,6.57
2022-10-17T15:19:57.057Z,7.38
2022-10-17T15:22:24.083Z,6.63
2022-10-17T15:24:50.431Z,8.20
2022-10-17T15:27:22.989Z,9.18
2022-10-17T15:29:50.175Z,8.40
2022-10-17T15:32:16.523Z,10.77
2022-10-17T15:34:43.793Z,7.30
2022-10-17T15:37:18.505Z,7.10
2022-10-17T15:39:45.778Z,8.23
2022-10-17T15:42:12.266Z,7.45
2022-10-17T15:44:38.759Z,7.88
2022-10-17T15:47:06.263Z,9.15
2022-10-17T15:49:33.884Z,8.45
2022-10-17T15:52:00.297Z,10.80
2022-10-17T15:54:26.649Z,8.73
2022-10-17T15:56:55.069Z,7.25
2022-10-17T15:59:34.534Z,6.93
2022-10-17T16:02:00.931Z,7.47
2022-10-17T16:04:29.239Z,10.13
2022-10-17T16:06:55.560Z,7.00
2022-10-17T16:09:21.933Z,7.03
2022-10-17T16:11:48.319Z,7.15
2022-10-17T16:14:16.698Z,9.98
2022-10-17T16:16:43.595Z,15.25
2022-10-17T16:19:10.062Z,7.03
2022-10-17T16:21:39.154Z,6.80
2022-10-17T16:24:06.495Z,10.73
2022-10-17T16:26:33.013Z,8.05
2022-10-17T16:29:02.761Z,8.27
2022-10-17T16:31:33.259Z,7.97
2022-10-17T16:34:01.019Z,7.32
2022-10-17T16:36:27.884Z,9.07
2022-10-17T16:38:54.350Z,8.65
2022-10-17T16:41:27.998Z,11.85
2022-10-17T16:43:56.612Z,8.07
2022-10-17T16:46:24.678Z,6.35
2022-10-17T16:48:51.345Z,8.07
2022-10-17T16:51:19.031Z,8.10
2022-10-17T16:53:47.199Z,7.60
2022-10-17T16:56:17.943Z,9.90
2022-10-17T16:58:44.814Z,8.10
2022-10-17T17:01:16.663Z,6.32
2022-10-17T17:06:14.424Z,6.80
2022-10-17T17:08:42.421Z,8.43
2022-10-17T17:11:10.754Z,8.05
2022-10-17T17:13:37.612Z,8.52
2022-10-17T17:16:15.836Z,9.95
2022-10-17T17:18:42.895Z,5.93
2022-10-17T17:21:14.120Z,6.60
2022-10-17T17:23:42.049Z,8.05
2022-10-17T17:26:13.558Z,7.30
2022-10-17T17:28:40.775Z,8.55
2022-10-17T17:31:09.438Z,6.22
2022-10-17T17:33:38.308Z,7.30
2022-10-17T17:36:05.930Z,6.03
2022-10-17T17:38:36.240Z,5.28
2022-10-17T17:41:04.008Z,4.97
2022-10-17T17:43:31.204Z,9.85
2022-10-17T17:46:00.453Z,5.15
2022-10-17T17:48:26.794Z,6.15
2022-10-17T17:50:53.188Z,6.80
2022-10-17T17:53:19.671Z,7.82
2022-10-17T17:55:46.052Z,6.90
2022-10-17T17:58:12.488Z,7.40
2022-10-17T18:00:40.629Z,4.72
2022-10-17T18:03:07.482Z,7.95
2022-10-17T18:05:36.765Z,8.27
2022-10-17T18:08:04.824Z,5.28
2022-10-17T18:10:31.221Z,6.05
2022-10-17T18:12:57.564Z,5.85
2022-10-17T18:15:23.914Z,7.75
2022-10-17T18:17:50.423Z,5.28
2022-10-17T18:20:16.948Z,6.32
2022-10-17T18:22:43.337Z,8.25
2022-10-17T18:25:09.789Z,6.75
2022-10-17T18:27:36.327Z,6.85
2022-10-17T18:30:03.002Z,5.82
2022-10-17T18:32:32.702Z,8.18
2022-10-17T18:34:59.318Z,4.82
2022-10-17T18:37:25.658Z,9.75
2022-10-17T18:39:54.070Z,7.22
2022-10-17T18:42:20.796Z,7.65
2022-10-17T18:44:47.821Z,7.95
2022-10-17T18:47:14.180Z,7.25
2022-10-17T18:49:40.669Z,4.95
2022-10-17T18:52:07.081Z,5.93
2022-10-17T18:54:34.599Z,5.18
2022-10-17T18:57:01.873Z,7.07
2022-10-17T18:59:28.262Z,10.07
2022-10-17T19:01:54.669Z,5.95
2022-10-17T19:04:21.130Z,5.07
2022-10-17T19:06:47.498Z,14.23
2022-10-17T19:09:15.508Z,5.50
2022-10-17T19:11:42.808Z,7.75
2022-10-17T19:14:13.499Z,6.60
2022-10-17T19:16:43.336Z,7.77
2022-10-17T19:19:19.303Z,7.97
2022-10-17T19:21:59.958Z,7.80
2022-10-17T19:24:27.749Z,5.57
2022-10-17T19:26:56.853Z,5.30
2022-10-17T19:29:26.012Z,5.93
2022-10-17T19:31:52.718Z,6.72
2022-10-17T19:34:19.318Z,7.82
2022-10-17T19:36:46.018Z,7.60
2022-10-17T19:39:18.370Z,12.00
2022-10-17T19:41:46.720Z,7.55
2022-10-17T19:44:14.179Z,7.60
2022-10-17T19:46:40.550Z,9.75
2022-10-17T19:49:07.423Z,10.95
2022-10-17T19:51:36.281Z,10.15
2022-10-17T19:54:03.009Z,8.23
2022-10-17T19:56:31.742Z,13.70
2022-10-17T19:58:59.429Z,10.52
2022-10-17T20:01:28.979Z,12.50
2022-10-17T20:03:56.350Z,11.15
2022-10-17T20:06:23.696Z,11.90
2022-10-17T20:08:50.648Z,7.28
2022-10-17T20:11:20.290Z,10.25
2022-10-17T20:13:47.343Z,8.77
2022-10-17T20:16:23.661Z,8.80
2022-10-17T20:18:51.513Z,9.40
2022-10-17T20:21:21.494Z,10.15
2022-10-17T20:23:47.938Z,8.32
2022-10-17T20:29:04.881Z,10.98
2022-10-17T20:31:31.333Z,8.85
2022-10-17T20:33:59.108Z,10.57
2022-10-17T20:36:26.108Z,10.88
2022-10-17T20:38:56.683Z,9.98
2022-10-17T20:41:24.001Z,10.55
2022-10-17T20:43:54.982Z,11.82
2022-10-17T20:46:35.536Z,15.27
2022-10-17T20:49:04.238Z,11.60
2022-10-17T20:51:30.722Z,12.93
2022-10-17T20:56:32.755Z,11.25
2022-10-17T20:59:05.258Z,10.35
2022-10-17T21:01:33.682Z,14.93
2022-10-17T21:04:21.402Z,11.55
2022-10-17T21:06:48.768Z,13.75
2022-10-17T21:09:15.302Z,17.67
2022-10-17T21:11:43.018Z,13.57
2022-10-17T21:14:11.484Z,25.00
2022-10-17T21:16:39.458Z,58.70
2022-10-17T21:19:09.094Z,32.30
2022-10-17T21:21:37.602Z,17.50
2022-10-17T21:24:06.902Z,12.23
2022-10-17T21:26:37.485Z,12.93
2022-10-17T21:29:06.939Z,15.23
2022-10-17T21:31:35.881Z,13.25
2022-10-17T21:34:13.965Z,15.45
2022-10-17T21:36:41.130Z,11.98
2022-10-17T21:41:39.029Z,16.17
2022-10-17T21:44:11.143Z,13.80
2022-10-17T21:46:37.914Z,14.68
2022-10-17T21:49:04.280Z,17.88
2022-10-17T21:51:30.610Z,18.70
2022-10-17T21:53:58.710Z,14.55
2022-10-17T21:56:28.530Z,15.50
2022-10-17T21:58:56.403Z,15.73
2022-10-17T22:01:25.352Z,17.50
2022-10-17T22:03:54.514Z,16.67
2022-10-17T22:06:40.663Z,17.77
2022-10-17T22:09:15.732Z,18.40
2022-10-17T22:11:45.879Z,21.75
2022-10-17T22:14:15.301Z,20.42
2022-10-17T22:16:41.991Z,21.85
2022-10-17T22:19:08.946Z,17.95
2022-10-17T22:21:37.009Z,19.55
2022-10-17T22:24:06.442Z,17.45
2022-10-17T22:26:35.032Z,19.70
2022-10-17T22:29:01.535Z,18.10
2022-10-17T22:31:28.046Z,18.20
2022-10-17T22:33:57.122Z,17.05
2022-10-17T22:36:23.548Z,18.02
2022-10-17T22:38:50.011Z,18.48
2022-10-17T22:41:16.726Z,18.42
2022-10-17T22:43:43.050Z,17.67
2022-10-17T22:46:12.800Z,18.13
2022-10-17T22:48:39.637Z,20.65
2022-10-17T22:51:06.247Z,21.95
2022-10-17T22:53:32.675Z,21.30
2022-10-17T22:56:01.251Z,17.52
2022-10-17T22:58:29.226Z,20.73
2022-10-17T23:00:56.130Z,18.35
2022-10-17T23:03:23.674Z,16.58
2022-10-17T23:05:50.670Z,17.33
2022-10-17T23:08:20.847Z,18.45
2022-10-17T23:10:47.748Z,18.42
2022-10-17T23:13:15.179Z,22.08
2022-10-17T23:15:42.576Z,17.77
2022-10-17T23:18:09.734Z,19.00
2022-10-17T23:20:37.591Z,18.17
2022-10-17T23:23:04.682Z,17.00
2022-10-17T23:25:33.307Z,19.15
2022-10-17T23:27:59.666Z,16.85
2022-10-17T23:30:26.541Z,21.33
2022-10-17T23:32:53.094Z,15.85
2022-10-17T23:35:19.475Z,21.83
2022-10-17T23:37:45.891Z,20.35
2022-10-17T23:40:12.614Z,14.82
2022-10-17T23:42:42.025Z,18.10
2022-10-17T23:45:09.136Z,14.45
2022-10-17T23:47:35.457Z,13.68
2022-10-17T23:50:05.929Z,20.92
2022-10-17T23:52:32.521Z,15.95
2022-10-17T23:54:58.858Z,16.52
2022-10-17T23:57:25.231Z,17.85
2022-10-17T23:59:51.661Z,17.30
